Time;durP1;ratioP1;P1;durP2;ratioP2;P2;SDS_P1;SDS_P2;PMS_P1;PMS_P2;Temp;Humidity;BMP_temperature;BMP_pressure;BME280_temperature;BME280_humidity;BME280_pressure;Samples;Min_cycle;Max_cycle;Signal;HPM_P1;HPM_P2
2023/07/19 00:00:39;;;;;;;2.57;2.20;;;;;;;16.62;71.81;100447.72;5026891;28;20228;-74
2023/07/19 00:03:26;;;;;;;3.30;2.00;;;;;;;16.58;71.44;100449.63;5020841;28;20203;-74
2023/07/19 00:06:06;;;;;;;2.07;1.97;;;;;;;16.63;71.06;100468.75;5020401;28;20568;-74
2023/07/19 00:08:40;;;;;;;2.93;2.00;;;;;;;16.70;70.51;100465.84;5023706;28;20211;-74
2023/07/19 00:11:06;;;;;;;2.97;2.40;;;;;;;16.70;70.10;100494.84;5019685;28;20249;-74
2023/07/19 00:13:32;;;;;;;2.30;2.00;;;;;;;16.72;70.03;100508.81;5024202;28;20220;-74
2023/07/19 00:15:59;;;;;;;3.40;2.30;;;;;;;16.75;69.34;100532.38;5022696;28;20209;-74
2023/07/19 00:18:25;;;;;;;2.47;2.27;;;;;;;16.63;69.72;100533.75;5023606;28;20210;-74
2023/07/19 00:20:52;;;;;;;2.63;1.90;;;;;;;16.55;70.27;100539.38;5026949;28;20222;-74
2023/07/19 00:23:19;;;;;;;2.60;2.30;;;;;;;16.61;69.40;100549.66;5022405;28;20220;-73
2023/07/19 00:25:46;;;;;;;2.40;1.83;;;;;;;16.62;69.18;100538.19;5019187;28;20202;-72
2023/07/19 00:28:13;;;;;;;2.33;2.00;;;;;;;16.57;70.21;100526.13;5024742;28;20210;-72
2023/07/19 00:30:39;;;;;;;2.10;1.83;;;;;;;16.56;70.48;100517.34;5025511;28;20719;-72
2023/07/19 00:33:06;;;;;;;2.20;2.00;;;;;;;16.67;69.99;100519.56;5021366;28;20210;-72
2023/07/19 00:35:33;;;;;;;3.73;1.90;;;;;;;16.90;72.72;100462.34;5025295;28;20308;-73
2023/07/19 00:38:04;;;;;;;3.47;1.83;;;;;;;17.06;74.44;100398.28;5022345;28;20202;-73
2023/07/19 00:40:33;;;;;;;2.37;2.13;;;;;;;17.22;74.88;100368.53;5022678;28;20229;-73
2023/07/19 00:43:01;;;;;;;3.13;1.80;;;;;;;17.29;75.31;100351.50;5023961;28;20202;-73
2023/07/19 00:45:27;;;;;;;2.90;2.07;;;;;;;17.38;75.30;100350.19;5021780;28;20446;-73
2023/07/19 00:47:54;;;;;;;2.27;1.77;;;;;;;17.47;74.37;100363.78;5024284;28;20667;-73
2023/07/19 00:50:22;;;;;;;1.70;1.60;;;;;;;17.53;74.01;100375.84;5024921;28;20222;-73
2023/07/19 00:52:51;;;;;;;2.70;1.97;;;;;;;17.59;73.45;100394.00;5023782;28;20209;-73
2023/07/19 00:55:18;;;;;;;2.63;1.70;;;;;;;17.66;72.51;100413.06;5024687;28;20219;-73
2023/07/19 00:57:45;;;;;;;2.20;1.83;;;;;;;17.69;72.50;100417.34;5023909;28;20198;-72
2023/07/19 01:00:14;;;;;;;2.10;2.00;;;;;;;17.71;72.39;100428.66;5027570;28;20226;-72
2023/07/19 01:02:42;;;;;;;1.67;1.57;;;;;;;17.72;71.82;100435.66;5019839;28;20199;-73
2023/07/19 01:05:09;;;;;;;2.03;1.73;;;;;;;17.72;72.27;100444.44;5024109;28;20194;-73
2023/07/19 01:07:35;;;;;;;1.70;1.60;;;;;;;17.75;72.70;100444.28;5024481;28;20197;-72
2023/07/19 01:10:02;;;;;;;3.03;2.03;;;;;;;17.73;73.03;100417.09;5023375;28;20214;-73
2023/07/19 01:12:28;;;;;;;1.97;1.87;;;;;;;17.73;72.25;100430.28;5021388;28;20213;-73
2023/07/19 01:14:55;;;;;;;1.80;1.70;;;;;;;17.73;72.03;100430.28;5023783;28;20229;-72
2023/07/19 01:17:23;;;;;;;2.10;1.90;;;;;;;17.72;72.33;100438.28;5023623;28;20210;-72
2023/07/19 01:19:50;;;;;;;2.40;2.17;;;;;;;17.66;72.71;100427.13;5024531;28;20218;-72
2023/07/19 01:22:17;;;;;;;2.37;2.00;;;;;;;17.63;72.43;100434.31;5024224;28;20202;-73
2023/07/19 01:24:45;;;;;;;1.87;1.77;;;;;;;17.57;72.70;100429.34;5024635;28;20198;-72
2023/07/19 01:27:11;;;;;;;2.00;1.70;;;;;;;17.60;72.57;100427.41;5024125;28;20226;-72
2023/07/19 01:29:38;;;;;;;3.03;1.90;;;;;;;17.61;71.66;100437.03;5025534;28;20209;-73
2023/07/19 01:32:05;;;;;;;2.53;2.33;;;;;;;17.64;70.21;100483.53;5020592;28;20206;-73
2023/07/19 01:34:31;;;;;;;1.80;1.70;;;;;;;17.64;69.57;100507.28;5025087;28;20222;-73
2023/07/19 01:36:58;;;;;;;2.87;1.60;;;;;;;17.69;69.31;100522.94;5026606;28;20202;-72
2023/07/19 01:39:24;;;;;;;1.93;1.40;;;;;;;17.64;69.94;100526.66;5023899;28;20209;-73
2023/07/19 01:41:52;;;;;;;1.80;1.70;;;;;;;17.63;69.66;100516.16;5032468;28;20209;-72
2023/07/19 01:44:18;;;;;;;2.17;1.97;;;;;;;17.58;70.18;100513.75;5028861;28;20206;-73
2023/07/19 01:46:45;;;;;;;1.83;1.73;;;;;;;17.59;70.06;100506.66;5026986;28;20197;-73
2023/07/19 01:49:11;;;;;;;4.07;1.67;;;;;;;17.55;70.69;100497.19;5028041;28;20206;-73
2023/07/19 01:51:38;;;;;;;2.07;1.87;;;;;;;17.50;69.94;100497.38;5031455;28;20226;-73
2023/07/19 01:54:04;;;;;;;2.33;2.13;;;;;;;17.40;70.27;100496.97;5027834;28;20197;-73
2023/07/19 01:56:31;;;;;;;2.00;1.80;;;;;;;17.38;69.73;100509.38;5022939;28;20202;-73
2023/07/19 01:58:59;;;;;;;2.20;2.00;;;;;;;17.36;69.55;100518.28;5028969;28;20872;-73
2023/07/19 02:01:25;;;;;;;2.83;1.80;;;;;;;17.35;68.95;100530.63;5028969;28;20225;-73
2023/07/19 02:03:52;;;;;;;2.87;1.47;;;;;;;17.42;68.51;100537.34;5026448;28;20233;-73
2023/07/19 02:06:18;;;;;;;1.93;1.73;;;;;;;17.42;68.60;100545.25;5025161;28;20206;-74
2023/07/19 02:08:45;;;;;;;1.80;1.67;;;;;;;17.39;69.48;100532.19;5025885;28;20198;-73
2023/07/19 02:11:11;;;;;;;1.83;1.60;;;;;;;17.38;70.12;100513.78;5026339;28;20380;-73
2023/07/19 02:13:38;;;;;;;1.77;1.67;;;;;;;17.43;69.74;100515.28;5028281;28;20207;-73
2023/07/19 02:16:06;;;;;;;2.73;1.90;;;;;;;17.41;71.17;100488.13;5029319;28;20272;-73
2023/07/19 02:18:32;;;;;;;1.70;1.60;;;;;;;17.41;70.96;100468.81;5028525;28;20205;-73
2023/07/19 02:20:59;;;;;;;2.03;1.83;;;;;;;17.37;70.83;100462.81;5023252;28;20222;-73
2023/07/19 02:23:25;;;;;;;2.20;2.00;;;;;;;17.36;70.42;100478.69;5028608;28;20209;-73
2023/07/19 02:25:52;;;;;;;2.80;1.73;;;;;;;17.29;71.33;100466.75;5026018;28;20574;-73
2023/07/19 02:28:18;;;;;;;2.70;1.80;;;;;;;17.23;71.68;100449.41;5025713;28;20661;-73
2023/07/19 02:30:46;;;;;;;2.37;1.90;;;;;;;17.24;71.48;100435.28;5029019;28;20218;-73
2023/07/19 02:33:14;;;;;;;2.00;1.77;;;;;;;17.22;71.20;100439.78;5029256;28;20206;-73
2023/07/19 02:35:41;;;;;;;2.00;1.63;;;;;;;17.20;70.85;100453.03;5026658;28;20240;-73
2023/07/19 02:38:08;;;;;;;2.10;1.90;;;;;;;17.18;71.10;100454.03;5023463;28;20206;-73
2023/07/19 02:40:34;;;;;;;2.63;1.67;;;;;;;17.16;70.23;100461.16;5027734;28;20222;-73
2023/07/19 02:43:01;;;;;;;2.17;1.70;;;;;;;17.16;70.18;100467.28;5025881;28;20211;-73
2023/07/19 02:45:28;;;;;;;3.40;1.70;;;;;;;17.16;69.09;100488.38;5025364;28;20209;-73
2023/07/19 02:47:55;;;;;;;1.60;1.50;;;;;;;17.13;69.55;100500.88;5020638;28;20202;-73
2023/07/19 02:50:22;;;;;;;1.77;1.67;;;;;;;17.00;70.20;100497.91;5026538;28;20237;-73
2023/07/19 02:52:49;;;;;;;2.20;2.00;;;;;;;16.98;71.17;100470.75;5014490;28;20209;-73
2023/07/19 02:55:15;;;;;;;2.10;1.73;;;;;;;16.95;71.24;100457.75;5022297;28;20223;-73
2023/07/19 02:57:42;;;;;;;1.87;1.50;;;;;;;16.88;71.54;100454.50;5024897;28;20672;-73
2023/07/19 03:00:10;;;;;;;1.73;1.63;;;;;;;16.90;71.01;100443.91;5026177;28;20753;-73
2023/07/19 03:02:36;;;;;;;2.77;2.10;;;;;;;16.79;71.17;100437.28;5024334;28;20199;-73
2023/07/19 03:05:03;;;;;;;2.83;2.07;;;;;;;16.77;71.20;100441.78;5021969;28;20199;-73
2023/07/19 03:07:32;;;;;;;2.53;2.00;;;;;;;16.74;71.87;100422.59;5022556;28;20260;-73
2023/07/19 03:09:58;;;;;;;2.53;1.80;;;;;;;16.81;72.26;100414.38;5025711;28;20229;-73
2023/07/19 03:12:24;;;;;;;7.00;1.97;;;;;;;16.82;73.03;100388.88;5026074;28;20293;-73
2023/07/19 03:14:51;;;;;;;2.10;1.90;;;;;;;16.80;74.08;100362.53;5013709;28;20225;-73
2023/07/19 03:17:18;;;;;;;3.47;2.07;;;;;;;16.82;74.40;100344.91;5022099;28;20249;-73
2023/07/19 03:19:47;;;;;;;2.43;1.83;;;;;;;16.80;74.47;100340.59;5024870;28;20230;-73
2023/07/19 03:22:13;;;;;;;3.80;2.07;;;;;;;16.73;74.90;100329.50;5025063;28;20198;-73
2023/07/19 03:24:41;;;;;;;2.10;1.90;;;;;;;16.67;74.79;100322.72;5023301;28;20209;-73
2023/07/19 03:27:07;;;;;;;3.37;1.90;;;;;;;16.61;75.46;100309.84;5022360;28;20210;-73
2023/07/19 03:29:34;;;;;;;2.20;2.00;;;;;;;16.63;75.32;100310.63;5022935;28;20203;-73
2023/07/19 03:32:00;;;;;;;1.90;1.70;;;;;;;16.66;74.64;100315.72;5025215;28;20202;-73
2023/07/19 03:34:27;;;;;;;2.80;2.03;;;;;;;16.66;75.12;100312.25;5024762;28;20686;-73
2023/07/19 03:36:53;;;;;;;1.93;1.83;;;;;;;16.68;75.22;100305.13;5013809;28;20201;-73
2023/07/19 03:39:20;;;;;;;2.13;1.93;;;;;;;16.68;75.85;100292.78;5021668;28;20698;-73
2023/07/19 03:41:48;;;;;;;3.53;1.70;;;;;;;16.73;75.88;100295.22;5021915;28;20225;-73
2023/07/19 03:44:15;;;;;;;3.23;1.87;;;;;;;16.76;75.09;100300.34;5021133;28;20202;-73
2023/07/19 03:46:41;;;;;;;1.53;1.30;;;;;;;16.81;74.08;100324.75;5013274;28;20565;-73
2023/07/19 03:49:07;;;;;;;1.70;1.40;;;;;;;16.83;73.11;100351.91;5013902;28;20233;-73
2023/07/19 03:51:34;;;;;;;1.80;1.70;;;;;;;16.83;73.13;100364.22;5021463;28;20241;-73
2023/07/19 03:54:00;;;;;;;4.43;1.67;;;;;;;16.84;73.32;100377.31;5021478;28;20206;-73
2023/07/19 03:56:27;;;;;;;1.50;1.40;;;;;;;16.85;73.82;100379.03;5021259;28;20261;-73
2023/07/19 03:58:55;;;;;;;1.80;1.70;;;;;;;16.85;74.22;100368.50;5024443;28;20202;-73
2023/07/19 04:01:21;;;;;;;1.60;1.43;;;;;;;16.83;74.49;100345.78;5024444;28;20226;-73
2023/07/19 04:03:48;;;;;;;1.73;1.63;;;;;;;16.86;74.66;100340.34;5016714;28;20597;-73
2023/07/19 04:06:14;;;;;;;2.03;1.43;;;;;;;16.84;74.30;100342.19;5024347;28;20202;-73
2023/07/19 04:08:41;;;;;;;2.80;1.80;;;;;;;16.84;74.52;100337.78;5023019;28;20209;-73
2023/07/19 04:11:07;;;;;;;1.77;1.67;;;;;;;16.85;74.26;100333.38;5021326;28;20234;-73
2023/07/19 04:13:34;;;;;;;2.20;1.53;;;;;;;16.85;75.16;100323.69;5021266;28;20300;-73
2023/07/19 04:16:02;;;;;;;2.60;1.70;;;;;;;16.87;75.03;100316.56;5023866;28;20222;-73
2023/07/19 04:18:28;;;;;;;2.10;1.60;;;;;;;16.86;75.72;100296.38;5024504;28;20255;-73
2023/07/19 04:20:56;;;;;;;1.97;1.70;;;;;;;16.88;76.35;100291.03;5021478;28;20230;-73
2023/07/19 04:23:23;;;;;;;2.37;1.73;;;;;;;16.91;76.61;100272.44;5020818;28;20213;-73
2023/07/19 04:25:50;;;;;;;1.60;1.50;;;;;;;16.92;76.39;100275.94;5023175;28;20665;-73
2023/07/19 04:28:16;;;;;;;1.67;1.50;;;;;;;16.93;75.92;100288.19;5024017;28;20204;-73
2023/07/19 04:30:44;;;;;;;2.00;1.90;;;;;;;16.93;75.61;100291.69;5022818;28;20234;-73
2023/07/19 04:33:12;;;;;;;2.13;1.93;;;;;;;16.92;75.32;100302.28;5021059;28;20228;-73
2023/07/19 04:35:39;;;;;;;2.57;2.37;;;;;;;16.94;75.78;100296.00;5020583;28;20256;-73
2023/07/19 04:38:05;;;;;;;2.30;2.10;;;;;;;16.97;76.24;100285.34;5016680;28;20210;-73
2023/07/19 04:40:32;;;;;;;2.13;1.93;;;;;;;17.01;76.72;100268.44;5016004;28;20268;-73
2023/07/19 04:42:59;;;;;;;2.70;2.50;;;;;;;16.98;77.34;100255.38;5012226;28;20216;-73
2023/07/19 04:45:25;;;;;;;2.30;1.97;;;;;;;17.03;77.96;100242.00;5020394;28;20203;-73
2023/07/19 04:47:52;;;;;;;3.33;1.87;;;;;;;17.06;78.62;100228.63;5023216;28;20207;-73
2023/07/19 04:50:20;;;;;;;2.27;2.00;;;;;;;17.09;79.00;100219.75;5024105;28;20217;-73
2023/07/19 04:52:46;;;;;;;1.67;1.50;;;;;;;17.13;80.03;100195.75;5021454;28;20623;-73
2023/07/19 04:55:13;;;;;;;1.87;1.77;;;;;;;17.15;78.80;100203.63;5019983;28;20227;-73
2023/07/19 04:57:39;;;;;;;2.00;1.90;;;;;;;17.20;78.09;100218.25;5020306;28;20218;-73
2023/07/19 05:00:11;;;;;;;1.73;1.63;;;;;;;17.19;78.00;100236.81;5020627;28;20230;-73
2023/07/19 05:02:38;;;;;;;3.40;1.83;;;;;;;17.24;78.61;100240.06;5020603;28;20663;-73
2023/07/19 05:05:05;;;;;;;1.93;1.50;;;;;;;17.29;78.59;100224.88;5023305;28;20206;-73
2023/07/19 05:07:34;;;;;;;1.90;1.70;;;;;;;17.31;77.08;100257.31;5023025;28;20297;-73
2023/07/19 05:10:02;;;;;;;2.40;2.20;;;;;;;17.34;76.54;100270.31;5007858;28;20225;-73
2023/07/19 05:12:29;;;;;;;2.73;2.20;;;;;;;17.37;76.80;100283.38;4978406;23;20288;-74
2023/07/19 05:14:56;;;;;;;3.83;2.03;;;;;;;17.37;77.21;100278.09;4968117;28;20238;-76
2023/07/19 05:17:22;;;;;;;3.63;2.40;;;;;;;17.38;77.84;100271.91;4964839;28;20207;-75
2023/07/19 05:19:49;;;;;;;2.63;2.20;;;;;;;17.40;78.52;100256.84;4963265;28;20228;-75
2023/07/19 05:22:16;;;;;;;2.50;2.30;;;;;;;17.47;78.66;100233.63;4961240;28;20201;-75
2023/07/19 05:24:44;;;;;;;2.57;2.00;;;;;;;17.47;79.07;100223.94;4961261;28;20227;-75
2023/07/19 05:27:15;;;;;;;2.03;1.83;;;;;;;17.39;78.02;100241.09;4961780;28;20291;-75
2023/07/19 05:29:41;;;;;;;3.80;2.37;;;;;;;17.39;78.18;100244.56;4962386;28;21012;-75
2023/07/19 05:32:08;;;;;;;3.63;1.80;;;;;;;17.40;77.74;100235.75;4964739;28;20208;-75
2023/07/19 05:34:35;;;;;;;2.13;1.60;;;;;;;17.56;80.77;100212.06;4964418;28;20736;-75
2023/07/19 05:37:03;;;;;;;2.47;2.07;;;;;;;17.71;82.50;100162.03;4941216;28;20229;-75
2023/07/19 05:39:30;;;;;;;2.90;1.70;;;;;;;17.84;82.70;100150.75;4953791;28;20587;-75
2023/07/19 05:41:58;;;;;;;2.70;1.80;;;;;;;17.81;78.57;100206.34;4953730;28;20212;-75
2023/07/19 05:44:24;;;;;;;1.93;1.73;;;;;;;17.86;78.64;100230.75;4952889;28;20216;-75
2023/07/19 05:46:52;;;;;;;2.83;2.10;;;;;;;17.95;77.00;100250.53;4953306;28;20212;-75
2023/07/19 05:49:19;;;;;;;2.33;1.93;;;;;;;18.05;79.62;100230.63;4953564;28;20208;-75
2023/07/19 05:51:45;;;;;;;3.50;2.10;;;;;;;18.13;79.35;100226.72;4953090;28;20236;-75
2023/07/19 05:54:12;;;;;;;2.93;1.83;;;;;;;18.16;78.65;100247.72;4952631;28;20217;-75
2023/07/19 05:56:38;;;;;;;1.97;1.77;;;;;;;18.22;78.86;100236.81;4953296;28;20232;-75
2023/07/19 05:59:06;;;;;;;4.83;2.27;;;;;;;18.32;80.00;100218.66;4934252;29;20557;-75
2023/07/19 06:01:33;;;;;;;2.80;2.00;;;;;;;18.35;77.56;100236.97;4938867;29;20239;-75
2023/07/19 06:03:59;;;;;;;2.53;1.90;;;;;;;18.49;79.30;100246.78;4972119;28;20204;-75
2023/07/19 06:06:26;;;;;;;2.47;2.27;;;;;;;18.34;74.98;100343.63;4971980;28;20595;-75
2023/07/19 06:08:52;;;;;;;1.90;1.70;;;;;;;18.28;73.37;100391.53;4972560;28;20215;-75
2023/07/19 06:11:19;;;;;;;3.03;2.07;;;;;;;18.23;72.19;100429.56;4972748;28;20246;-75
2023/07/19 06:13:45;;;;;;;2.10;1.90;;;;;;;18.24;70.71;100459.53;4972546;28;20215;-75
2023/07/19 06:16:13;;;;;;;4.73;2.27;;;;;;;18.22;71.80;100467.53;4972179;28;20256;-75
2023/07/19 06:18:40;;;;;;;2.13;1.93;;;;;;;18.39;74.61;100431.44;4972849;28;20223;-75
2023/07/19 06:21:06;;;;;;;3.60;2.23;;;;;;;18.29;72.65;100449.56;4972536;28;20235;-75
2023/07/19 06:23:33;;;;;;;3.60;1.90;;;;;;;18.29;72.47;100454.00;4974904;28;20226;-75
2023/07/19 06:25:59;;;;;;;2.20;2.00;;;;;;;18.25;71.72;100483.22;4976144;28;20548;-75
2023/07/19 06:28:26;;;;;;;2.13;1.93;;;;;;;18.20;69.98;100519.59;4976126;28;20218;-75
2023/07/19 06:30:52;;;;;;;4.23;2.20;;;;;;;18.29;71.28;100518.25;4976174;28;20270;-75
2023/07/19 06:33:20;;;;;;;2.47;2.10;;;;;;;18.26;71.85;100498.13;4975622;28;20219;-75
2023/07/19 06:35:47;;;;;;;2.20;2.00;;;;;;;18.41;70.89;100499.16;4974780;28;20228;-75
2023/07/19 06:38:14;;;;;;;2.20;2.00;;;;;;;18.61;71.37;100497.28;4976072;28;20240;-75
2023/07/19 06:40:40;;;;;;;2.80;2.17;;;;;;;18.76;70.69;100459.47;4976136;28;20224;-75
2023/07/19 06:43:07;;;;;;;2.20;2.03;;;;;;;18.82;66.30;100598.50;4976041;28;20208;-75
2023/07/19 06:45:33;;;;;;;2.20;2.03;;;;;;;18.82;63.83;100686.63;4975275;28;20216;-74
2023/07/19 06:48:00;;;;;;;2.47;2.27;;;;;;;18.95;65.33;100707.19;4975541;28;20677;-75
2023/07/19 06:50:28;;;;;;;2.20;2.00;;;;;;;19.08;65.59;100700.34;4975849;28;20608;-75
2023/07/19 06:52:55;;;;;;;4.67;2.10;;;;;;;19.15;64.81;100703.56;4975465;28;20212;-76
2023/07/19 06:55:23;;;;;;;2.67;2.33;;;;;;;19.19;64.74;100721.84;4975378;28;20215;-75
2023/07/19 06:57:49;;;;;;;2.17;1.97;;;;;;;19.18;62.55;100765.09;4975256;28;20239;-74
2023/07/19 07:00:16;;;;;;;3.33;2.20;;;;;;;19.24;63.26;100775.38;4975611;28;20229;-73
2023/07/19 07:02:43;;;;;;;2.97;2.63;;;;;;;19.31;63.36;100777.75;4975139;28;20215;-75
2023/07/19 07:05:10;;;;;;;2.57;2.30;;;;;;;19.45;63.32;100772.63;4975138;28;20212;-75
2023/07/19 07:07:39;;;;;;;2.77;2.20;;;;;;;19.47;61.88;100799.88;4975068;28;20271;-74
2023/07/19 07:10:08;;;;;;;2.40;2.10;;;;;;;19.44;61.60;100821.19;4975525;28;20224;-75
2023/07/19 07:12:35;;;;;;;2.30;2.03;;;;;;;19.48;62.58;100812.16;4975029;28;20681;-75
2023/07/19 07:15:02;;;;;;;2.83;2.20;;;;;;;19.45;62.30;100814.97;4974703;28;20231;-75
2023/07/19 07:17:28;;;;;;;2.37;2.10;;;;;;;19.25;63.06;100814.16;4971323;28;20670;-75
2023/07/19 07:19:55;;;;;;;2.43;2.23;;;;;;;19.44;65.43;100729.41;4946566;29;20225;-75
2023/07/19 07:22:22;;;;;;;3.13;2.07;;;;;;;19.47;66.49;100712.50;4946291;29;20814;-75
2023/07/19 07:24:50;;;;;;;3.83;2.57;;;;;;;19.53;66.60;100664.50;4944379;29;20229;-75
2023/07/19 07:27:16;;;;;;;2.70;2.50;;;;;;;19.70;66.52;100652.16;4938251;29;20208;-75
2023/07/19 07:29:43;;;;;;;2.57;2.30;;;;;;;19.78;65.51;100664.09;4936205;29;20752;-75
2023/07/19 07:32:10;;;;;;;2.53;2.30;;;;;;;19.88;64.98;100668.88;4936788;29;20209;-75
2023/07/19 07:34:37;;;;;;;2.80;2.57;;;;;;;19.90;61.40;100742.06;4935169;29;20217;-75
2023/07/19 07:37:03;;;;;;;2.83;2.33;;;;;;;20.00;61.04;100795.44;4936378;29;20240;-76
2023/07/19 07:39:31;;;;;;;2.73;2.53;;;;;;;19.91;58.33;100857.69;4936477;29;20709;-75
2023/07/19 07:41:58;;;;;;;2.57;2.37;;;;;;;19.86;60.38;100878.28;4936366;29;20209;-75
2023/07/19 07:44:25;;;;;;;3.87;2.70;;;;;;;20.07;60.79;100851.63;4935341;29;20213;-75
2023/07/19 07:46:51;;;;;;;3.50;2.00;;;;;;;20.11;60.62;100838.13;4936237;29;20486;-75
2023/07/19 07:49:18;;;;;;;2.60;2.13;;;;;;;20.22;61.61;100829.63;4936468;29;20209;-75
2023/07/19 07:51:44;;;;;;;2.43;2.17;;;;;;;20.24;61.14;100839.19;4935783;29;20606;-75
2023/07/19 07:54:11;;;;;;;2.20;2.00;;;;;;;20.17;60.29;100847.53;4935845;29;20213;-75
2023/07/19 07:56:37;;;;;;;2.40;2.20;;;;;;;20.11;60.57;100850.50;4935864;29;20302;-74
2023/07/19 07:59:05;;;;;;;4.40;2.20;;;;;;;20.03;61.43;100829.72;4935940;29;20217;-75
2023/07/19 08:01:32;;;;;;;3.50;1.73;;;;;;;20.15;61.95;100801.72;4936321;29;20232;-75
2023/07/19 08:03:59;;;;;;;2.43;2.10;;;;;;;20.24;62.31;100790.63;4935492;29;20702;-75
2023/07/19 08:06:25;;;;;;;3.87;2.43;;;;;;;20.30;61.56;100779.69;4935704;29;20296;-75
2023/07/19 08:08:52;;;;;;;2.20;1.97;;;;;;;20.44;60.32;100808.09;4935639;29;20261;-75
2023/07/19 08:11:21;;;;;;;2.60;1.90;;;;;;;20.49;57.78;100851.13;4935701;29;20241;-75
2023/07/19 08:13:47;;;;;;;2.40;1.87;;;;;;;20.44;55.46;100952.16;4935494;29;20213;-75
2023/07/19 08:16:15;;;;;;;2.83;2.10;;;;;;;20.47;54.60;101017.44;4935317;29;20260;-75
2023/07/19 08:18:42;;;;;;;2.03;1.70;;;;;;;20.49;54.62;101071.25;4935883;29;20210;-74
2023/07/19 08:21:08;;;;;;;2.00;1.80;;;;;;;20.56;55.41;101059.41;4935422;29;20650;-74
2023/07/19 08:23:35;;;;;;;2.30;1.90;;;;;;;20.53;54.90;101066.66;4935196;29;20222;-75
2023/07/19 08:26:01;;;;;;;3.13;1.97;;;;;;;20.59;53.39;101087.59;4935166;29;20213;-75
2023/07/19 08:28:28;;;;;;;2.23;1.63;;;;;;;20.69;55.45;101077.38;4935329;29;20209;-74
2023/07/19 08:30:54;;;;;;;2.57;1.90;;;;;;;20.62;52.80;101120.13;4935788;29;20237;-75
2023/07/19 08:33:24;;;;;;;1.83;1.73;;;;;;;20.82;53.72;101105.88;4935121;29;20214;-75
2023/07/19 08:35:51;;;;;;;2.30;1.93;;;;;;;20.77;52.38;101133.56;4935303;29;20210;-75
2023/07/19 08:38:17;;;;;;;4.50;1.57;;;;;;;20.95;52.75;101153.88;4934722;29;20607;-74
2023/07/19 08:40:55;;;;;;;2.63;1.50;;;;;;;20.94;50.86;101184.00;4935291;29;20948;-74
2023/07/19 08:43:26;;;;;;;3.33;1.73;;;;;;;21.02;51.14;101205.69;4934964;29;20209;-74
2023/07/19 08:45:53;;;;;;;2.27;1.60;;;;;;;21.01;50.55;101225.22;4934981;29;20194;-75
2023/07/19 08:48:19;;;;;;;1.70;1.60;;;;;;;20.85;50.33;101247.28;4935305;29;20213;-74
2023/07/19 08:50:54;;;;;;;1.67;1.40;;;;;;;20.93;52.34;101214.16;4934798;29;20719;-75
2023/07/19 08:53:21;;;;;;;2.77;1.83;;;;;;;21.16;52.76;101161.66;4957404;28;20287;-74
2023/07/19 08:55:47;;;;;;;2.10;1.90;;;;;;;21.15;51.57;101171.44;4973023;28;20700;-74
2023/07/19 08:58:16;;;;;;;3.00;1.70;;;;;;;21.20;51.17;101168.53;4973473;28;20624;-75
2023/07/19 09:00:42;;;;;;;4.17;1.80;;;;;;;21.25;52.04;101174.47;4974766;28;20311;-74
2023/07/19 09:03:09;;;;;;;2.37;1.80;;;;;;;21.18;51.22;101178.38;4974773;28;20677;-74
2023/07/19 09:05:38;;;;;;;7.10;2.17;;;;;;;21.27;51.10;101180.56;4973391;28;20235;-75
2023/07/19 09:08:09;;;;;;;2.47;1.70;;;;;;;21.27;51.05;101174.38;4972984;28;20571;-74
2023/07/19 09:10:35;;;;;;;2.97;1.90;;;;;;;21.26;52.08;101177.97;4973010;28;20232;-75
2023/07/19 09:13:05;;;;;;;3.23;1.70;;;;;;;21.16;51.65;101172.28;4973066;28;20712;-74
2023/07/19 09:15:34;;;;;;;1.80;1.60;;;;;;;21.09;51.41;101171.75;4972904;28;20674;-76
2023/07/19 09:18:03;;;;;;;5.83;2.00;;;;;;;21.20;52.65;101142.84;4973026;28;20275;-75
2023/07/19 09:20:30;;;;;;;3.40;1.80;;;;;;;21.31;53.28;101125.50;4972865;28;20228;-74
2023/07/19 09:22:58;;;;;;;2.27;2.03;;;;;;;21.31;52.23;101131.66;4972821;28;20679;-75
2023/07/19 09:25:26;;;;;;;3.87;1.90;;;;;;;21.20;52.31;101134.88;4972559;28;20242;-75
2023/07/19 09:27:53;;;;;;;2.20;2.00;;;;;;;21.26;53.29;101111.59;4972893;28;20251;-75
2023/07/19 09:30:20;;;;;;;2.17;1.60;;;;;;;21.35;53.54;101095.19;4973029;28;20263;-74
2023/07/19 09:32:59;;;;;;;4.67;2.10;;;;;;;21.42;52.54;101076.16;4972390;28;20234;-75
2023/07/19 09:35:27;;;;;;;2.83;2.43;;;;;;;21.48;52.73;101085.63;4972749;28;20267;-74
2023/07/19 09:37:54;;;;;;;2.27;1.70;;;;;;;21.56;53.12;101075.44;4972505;28;20270;-74
2023/07/19 09:40:21;;;;;;;4.10;1.90;;;;;;;21.66;54.02;101070.47;4972906;28;20232;-75
2023/07/19 09:42:50;;;;;;;2.23;2.03;;;;;;;21.80;53.01;101051.97;4972565;28;20207;-75
2023/07/19 09:45:17;;;;;;;3.60;1.90;;;;;;;21.87;52.64;101048.97;4960742;28;20205;-75
2023/07/19 09:47:45;;;;;;;2.60;1.87;;;;;;;22.05;50.89;101089.59;4953462;29;20208;-74
2023/07/19 09:50:12;;;;;;;3.33;1.80;;;;;;;22.10;49.73;101146.91;4953618;28;20255;-74
2023/07/19 09:52:39;;;;;;;4.93;1.97;;;;;;;22.28;49.83;101168.09;4952830;29;20264;-75
2023/07/19 09:55:07;;;;;;;2.87;1.50;;;;;;;22.22;49.11;101195.91;4939779;29;20204;-74
2023/07/19 09:57:40;;;;;;;3.53;1.63;;;;;;;22.36;49.82;101205.78;4943763;28;20296;-74
2023/07/19 10:00:10;;;;;;;1.90;1.70;;;;;;;22.39;49.22;101217.09;4946740;28;20236;-75
2023/07/19 10:02:37;;;;;;;4.80;1.70;;;;;;;22.44;48.32;101235.47;4956769;28;20209;-75
2023/07/19 10:05:07;;;;;;;3.53;2.10;;;;;;;22.19;49.25;101243.91;4956253;29;20217;-75
2023/07/19 10:07:35;;;;;;;2.60;1.77;;;;;;;22.25;49.85;101224.16;4955861;29;20647;-74
2023/07/19 10:10:04;;;;;;;4.13;1.60;;;;;;;22.49;50.13;101189.97;4956878;28;20229;-74
2023/07/19 10:12:31;;;;;;;2.57;1.70;;;;;;;22.44;49.20;101197.34;4956962;28;20213;-74
2023/07/19 10:15:01;;;;;;;4.40;1.27;;;;;;;22.49;47.83;101237.88;4956263;29;20304;-75
2023/07/19 10:17:30;;;;;;;1.80;1.40;;;;;;;22.51;47.61;101271.44;4957055;29;20235;-74
2023/07/19 10:20:09;;;;;;;2.20;1.50;;;;;;;22.43;47.69;101289.63;4956890;28;20287;-75
2023/07/19 10:22:52;;;;;;;4.00;1.60;;;;;;;22.58;48.09;101272.81;4955875;29;20212;-75
2023/07/19 10:25:22;;;;;;;1.50;1.37;;;;;;;22.73;47.71;101294.19;4956157;29;20500;-75
2023/07/19 10:28:04;;;;;;;3.20;1.30;;;;;;;23.06;47.14;101279.94;4956488;28;20236;-75
2023/07/19 10:30:53;;;;;;;2.17;1.40;;;;;;;22.59;48.02;101303.78;4955488;28;20232;-75
2023/07/19 10:33:23;;;;;;;1.70;1.60;;;;;;;22.43;47.44;101292.28;4956106;29;20217;-76
2023/07/19 10:35:51;;;;;;;2.23;1.60;;;;;;;22.51;48.57;101262.59;4956542;29;20219;-74
2023/07/19 10:38:19;;;;;;;3.33;1.57;;;;;;;22.65;49.44;101217.44;4956056;29;20236;-74
2023/07/19 10:40:49;;;;;;;2.57;1.70;;;;;;;22.98;49.17;101195.97;4956559;28;20272;-75
2023/07/19 10:43:16;;;;;;;2.73;1.77;;;;;;;23.23;48.02;101218.53;4956563;28;20232;-74
2023/07/19 10:45:42;;;;;;;2.10;1.40;;;;;;;23.26;47.33;101254.78;4955852;29;20213;-75
2023/07/19 10:48:10;;;;;;;4.33;1.60;;;;;;;23.01;47.56;101277.47;4956807;29;20584;-74
2023/07/19 10:50:39;;;;;;;3.27;1.50;;;;;;;22.91;47.83;101271.84;4956602;28;20717;-75
2023/07/19 10:53:07;;;;;;;2.00;1.30;;;;;;;22.72;48.21;101266.72;4955719;29;20308;-74
2023/07/19 10:55:33;;;;;;;2.47;1.43;;;;;;;22.98;48.64;101219.94;4955952;29;20232;-74
2023/07/19 10:58:00;;;;;;;1.57;1.30;;;;;;;22.64;47.85;101252.13;4955588;29;20233;-75
2023/07/19 11:00:27;;;;;;;1.87;1.60;;;;;;;22.67;48.47;101231.50;4956276;28;20307;-74
2023/07/19 11:02:54;;;;;;;3.37;1.40;;;;;;;22.47;49.02;101237.09;4956419;29;20283;-75
2023/07/19 11:05:21;;;;;;;2.10;1.57;;;;;;;22.62;48.87;101198.13;4955462;28;20267;-75
2023/07/19 11:07:51;;;;;;;2.43;1.70;;;;;;;22.43;49.27;101193.00;4955756;29;20213;-74
2023/07/19 11:10:18;;;;;;;1.90;1.57;;;;;;;22.35;49.95;101172.16;4954831;28;20260;-75
2023/07/19 11:12:45;;;;;;;2.93;1.93;;;;;;;22.44;49.24;101168.97;4941750;23;20737;-74
2023/07/19 11:15:11;;;;;;;3.17;1.70;;;;;;;22.39;49.03;101166.56;4916721;29;20210;-73
2023/07/19 11:17:38;;;;;;;1.70;1.33;;;;;;;22.79;48.59;101161.59;4917399;29;20226;-73
2023/07/19 11:20:08;;;;;;;2.07;1.20;;;;;;;22.95;48.91;101168.66;4917257;29;20688;-72
2023/07/19 11:22:34;;;;;;;3.03;1.60;;;;;;;22.79;47.51;101208.66;4917308;29;20210;-73
2023/07/19 11:25:10;;;;;;;3.80;1.57;;;;;;;22.74;48.65;101210.72;4917275;29;20214;-72